Time;durP1;ratioP1;P1;durP2;ratioP2;P2;SDS_P1;SDS_P2;PMS_P1;PMS_P2;Temp;Humidity;BMP_temperature;BMP_pressure;BME280_temperature;BME280_humidity;BME280_pressure;Samples;Min_cycle;Max_cycle;Signal;HPM_P1;HPM_P2
2022/11/16 00:01:15;;;;;;;;;5.00;4.67;;;;;11.65;100.00;99633.88;5078548;28;45407;-79
2022/11/16 00:03:42;;;;;;;;;5.00;5.00;;;;;11.65;100.00;99649.84;5079306;28;46286;-79
2022/11/16 00:06:11;;;;;;;;;6.00;4.67;;;;;11.65;100.00;99644.50;5060589;28;45892;-78
2022/11/16 00:09:20;;;;;;;;;3.00;3.00;;;;;11.23;100.00;99591.56;5060718;28;45414;-79
2022/11/16 00:11:47;;;;;;;;;4.00;4.00;;;;;11.13;100.00;99576.03;5076627;27;45553;-79
2022/11/16 00:14:24;;;;;;;;;4.67;4.33;;;;;11.13;100.00;99572.56;5059404;28;47190;-78
2022/11/16 00:16:56;;;;;;;;;2.33;2.00;;;;;11.41;100.00;99625.53;5078731;28;45315;-79
2022/11/16 00:19:28;;;;;;;;;4.67;3.00;;;;;11.10;100.00;99582.56;5078732;28;45390;-78
2022/11/16 00:22:08;;;;;;;;;4.00;4.00;;;;;11.11;100.00;99596.69;5078805;28;45467;-79
2022/11/16 00:24:36;;;;;;;;;4.00;4.00;;;;;11.19;100.00;99609.78;5060183;28;48399;-78
2022/11/16 00:27:36;;;;;;;;;2.00;2.00;;;;;11.47;100.00;99666.44;5078800;28;45471;-79
2022/11/16 00:30:09;;;;;;;;;3.00;3.00;;;;;11.15;100.00;99611.22;5060408;28;45470;-79
2022/11/16 00:32:37;;;;;;;;;5.33;3.00;;;;;11.21;100.00;99621.03;5078567;28;45433;-78
2022/11/16 00:35:12;;;;;;;;;3.00;2.00;;;;;11.14;100.00;99616.75;5078219;28;46244;-78
2022/11/16 00:37:40;;;;;;;;;3.00;3.00;;;;;11.06;100.00;99601.81;5079455;28;45543;-78
2022/11/16 00:40:06;;;;;;;;;3.00;3.00;;;;;11.20;100.00;99631.88;5081976;27;45421;-78
2022/11/16 00:42:34;;;;;;;;;2.00;2.00;;;;;10.91;100.00;99589.56;5063911;28;47048;-78
2022/11/16 00:45:13;;;;;;;;;1.67;1.67;;;;;11.28;100.00;99641.50;5081788;28;46876;-79
2022/11/16 00:47:43;;;;;;;;;3.00;3.00;;;;;10.98;100.00;99601.00;5063746;28;45418;-78
2022/11/16 00:50:20;;;;;;;;;2.00;2.00;;;;;10.89;100.00;99591.59;5082098;28;45568;-78
2022/11/16 00:52:52;;;;;;;;;3.67;3.00;;;;;10.85;100.00;99595.69;5081854;28;45300;-79
2022/11/16 00:55:24;;;;;;;;;3.00;3.00;;;;;10.86;100.00;99594.66;5062708;28;47151;-78
2022/11/16 00:57:55;;;;;;;;;2.67;2.67;;;;;11.04;100.00;99627.81;5081819;28;45348;-77
2022/11/16 01:00:29;;;;;;;;;2.00;1.33;;;;;11.06;100.00;99631.88;5081857;28;45338;-78
2022/11/16 01:03:04;;;;;;;;;2.67;1.00;;;;;10.93;100.00;99607.94;5081633;28;45415;-78
2022/11/16 01:05:38;;;;;;;;;4.00;2.33;;;;;10.73;100.00;99572.38;5081869;28;45537;-78
2022/11/16 01:08:04;;;;;;;;;2.00;1.00;;;;;10.78;100.00;99590.38;5063286;28;45329;-78
2022/11/16 01:13:57;;;;;;;;;3.67;3.67;;;;;10.81;100.00;99602.44;5073156;28;45461;-79
2022/11/16 01:16:45;;;;;;;;;3.00;2.00;;;;;11.07;100.00;99636.16;5061876;28;47640;-78
2022/11/16 01:19:25;;;;;;;;;2.33;2.33;;;;;10.75;100.00;99601.41;5081515;28;45511;-78
2022/11/16 01:21:50;;;;;;;;;5.00;3.33;;;;;10.76;100.00;99599.56;5081656;27;45390;-78
2022/11/16 01:24:29;;;;;;;;;3.00;3.00;;;;;10.80;100.00;99611.41;5081438;28;45355;-78
2022/11/16 01:27:15;;;;;;;;;3.00;3.00;;;;;10.91;100.00;99626.75;5068484;28;46343;-78
2022/11/16 01:29:40;;;;;;;;;3.00;2.67;;;;;10.61;100.00;99566.03;5062771;28;45382;-78
2022/11/16 01:32:25;;;;;;;;;;;;;;;;;;;;;
2022/11/16 01:34:56;;;;;;;;;3.00;2.00;;;;;10.79;100.00;99605.28;5080011;28;74296;-78
2022/11/16 01:37:39;;;;;;;;;2.67;2.67;;;;;10.67;100.00;99586.47;5081066;28;46448;-79
2022/11/16 01:40:13;;;;;;;;;3.33;2.67;;;;;10.70;100.00;99591.38;5059249;28;45638;-79
2022/11/16 01:43:13;;;;;;;;;3.00;3.00;;;;;10.78;100.00;99595.69;5081424;28;45403;-78
2022/11/16 01:49:10;;;;;;;;;3.00;2.33;;;;;10.75;100.00;99588.13;5080981;27;46507;-78
2022/11/16 01:51:50;;;;;;;;;4.33;4.00;;;;;10.75;100.00;99580.16;5062791;28;45379;-79
2022/11/16 01:54:33;;;;;;;;;2.33;2.00;;;;;10.72;100.00;99577.91;5080995;28;45269;-78
2022/11/16 01:57:22;;;;;;;;;3.00;1.00;;;;;10.91;100.00;99610.00;5079855;28;45439;-78
2022/11/16 02:00:00;;;;;;;;;3.00;2.00;;;;;10.71;100.00;99578.91;5062419;28;48204;-78
2022/11/16 02:02:43;;;;;;;;;3.67;2.33;;;;;10.86;100.00;99597.31;5079021;28;45464;-78
2022/11/16 02:05:24;;;;;;;;;2.00;2.00;;;;;10.72;100.00;99583.22;5056921;28;45352;-79
2022/11/16 02:11:14;;;;;;;;;3.00;2.00;;;;;11.13;100.00;99655.00;5080420;28;45531;-78
2022/11/16 02:14:04;;;;;;;;;4.00;3.67;;;;;11.08;100.00;99651.09;5074983;28;45490;-78
2022/11/16 02:16:47;;;;;;;;;1.67;1.33;;;;;10.68;100.00;99590.75;5080495;28;45303;-79
2022/11/16 02:19:34;;;;;;;;;2.00;2.00;;;;;10.68;100.00;99584.63;5080613;28;45600;-77
2022/11/16 02:22:14;;;;;;;;;2.67;2.33;;;;;10.86;100.00;99600.78;5062184;28;48013;-79
2022/11/16 02:25:06;;;;;;;;;2.67;2.67;;;;;11.07;100.00;99651.28;5062025;28;45426;-77
2022/11/16 02:27:52;;;;;;;;;2.00;2.00;;;;;11.07;100.00;99646.81;5062144;28;45273;-78
2022/11/16 02:30:28;;;;;;;;;3.33;2.33;;;;;11.05;100.00;99632.88;5080170;28;45594;-78
2022/11/16 02:33:12;;;;;;;;;3.00;2.00;;;;;10.63;100.00;99574.63;5062045;28;47337;-78
2022/11/16 02:36:07;;;;;;;;;1.00;1.00;;;;;11.05;100.00;99648.84;5080573;28;45220;-78
2022/11/16 02:38:43;;;;;;;;;5.00;3.00;;;;;10.57;100.00;99575.44;5080052;28;45277;-78
2022/11/16 02:41:39;;;;;;;;;2.33;2.00;;;;;10.59;100.00;99587.47;5080318;28;45260;-80
2022/11/16 02:44:38;;;;;;;;;1.67;1.67;;;;;10.64;100.00;99594.03;5080202;28;45391;-79
2022/11/16 02:47:30;;;;;;;;;4.00;2.67;;;;;10.66;100.00;99587.50;5079950;28;45425;-79
2022/11/16 02:50:17;;;;;;;;;2.00;2.00;;;;;10.73;100.00;99585.66;5079550;28;45314;-77
2022/11/16 02:53:12;;;;;;;;;1.33;1.33;;;;;10.73;100.00;99580.34;5065214;28;45404;-78
2022/11/16 02:55:40;;;;;;;;;4.67;2.00;;;;;10.72;100.00;99569.94;5059595;28;47493;-78
2022/11/16 02:58:12;;;;;;;;;3.00;1.00;;;;;10.73;100.00;99579.53;5041439;28;45403;-78
2022/11/16 03:00:52;;;;;;;;;2.00;2.00;;;;;10.72;100.00;99581.34;5064276;28;45398;-78
2022/11/16 03:03:44;;;;;;;;;2.00;2.00;;;;;10.75;100.00;99588.13;5079894;28;45621;-78
2022/11/16 03:06:24;;;;;;;;;2.00;2.00;;;;;11.08;100.00;99650.28;5009980;28;47072;-78
2022/11/16 03:08:59;;;;;;;;;4.00;3.00;;;;;10.86;100.00;99626.53;5079798;28;45339;-78
2022/11/16 03:14:14;;;;;;;;;3.00;3.00;;;;;10.89;100.00;99634.13;5079549;28;45417;-79
2022/11/16 03:16:44;;;;;;;;;3.00;2.00;;;;;10.86;100.00;99640.66;5061026;28;48502;-79
2022/11/16 03:19:12;;;;;;;;;1.33;1.00;;;;;10.80;100.00;99630.00;5049337;28;46155;-78
2022/11/16 03:21:55;;;;;;;;;2.00;2.00;;;;;10.84;100.00;99631.25;5079688;28;45398;-78
2022/11/16 03:24:20;;;;;;;;;2.00;2.00;;;;;10.66;100.00;99611.41;5061168;28;46498;-78
2022/11/16 03:26:52;;;;;;;;;2.00;1.00;;;;;10.57;100.00;99602.78;5079668;28;45362;-78
2022/11/16 03:29:29;;;;;;;;;2.67;1.00;;;;;10.59;100.00;99613.22;5079266;28;45306;-78
2022/11/16 03:32:03;;;;;;;;;1.00;1.00;;;;;10.56;100.00;99610.97;5079802;28;45464;-78
2022/11/16 03:34:34;;;;;;;;;2.00;1.67;;;;;10.61;100.00;99619.16;5079428;28;45413;-77
2022/11/16 03:37:02;;;;;;;;;2.00;1.00;;;;;10.59;100.00;99616.72;5061043;28;48310;-77
2022/11/16 03:39:32;;;;;;;;;1.67;1.67;;;;;10.57;100.00;99615.28;5079683;28;45419;-78
2022/11/16 03:42:01;;;;;;;;;2.00;1.33;;;;;10.52;100.00;99615.06;5079318;28;45347;-77
2022/11/16 03:44:27;;;;;;;;;3.00;0.00;;;;;10.41;100.00;99608.44;5079250;28;45460;-78
2022/11/16 03:46:53;;;;;;;;;0.67;0.67;;;;;10.43;100.00;99615.22;5079256;28;45238;-77
2022/11/16 03:49:22;;;;;;;;;2.67;1.00;;;;;10.38;100.00;99611.53;5079322;28;45437;-77
2022/11/16 03:51:48;;;;;;;;;1.67;1.67;;;;;10.32;100.00;99611.31;5060943;28;45426;-77
2022/11/16 03:54:15;;;;;;;;;1.00;1.00;;;;;10.34;100.00;99613.75;5060888;28;46546;-77
2022/11/16 03:56:40;;;;;;;;;1.00;1.00;;;;;10.29;100.00;99613.53;5050177;28;47425;-77
2022/11/16 03:59:05;;;;;;;;;0.33;0.33;;;;;10.25;100.00;99609.66;5075199;28;45317;-78
2022/11/16 04:01:31;;;;;;;;;1.00;1.00;;;;;10.26;100.00;99614.75;5075342;28;45432;-78
2022/11/16 04:03:56;;;;;;;;;2.67;2.67;;;;;10.17;100.00;99605.31;5079007;28;45662;-77
2022/11/16 04:25:59;;;;;;;;;1.67;1.67;;;;;10.03;100.00;99580.59;5040436;28;45474;-78
2022/11/16 04:28:28;;;;;;;;;1.00;1.00;;;;;10.15;100.00;99596.75;5081818;28;45390;-77
2022/11/16 04:39:08;;;;;;;;;2.00;1.00;;;;;10.08;100.00;99580.78;5081943;28;45809;-77
2022/11/16 04:44:17;;;;;;;;;1.00;1.00;;;;;10.15;100.00;99578.97;5082182;28;45370;-77
2022/11/16 04:49:27;;;;;;;;;1.00;1.00;;;;;10.15;100.00;99557.72;5081937;28;45427;-79
2022/11/16 04:51:53;;;;;;;;;2.33;1.00;;;;;10.26;100.00;99569.63;5081891;28;45285;-78
2022/11/16 04:54:18;;;;;;;;;1.67;1.00;;;;;10.33;100.00;99572.31;5081995;28;45397;-78
2022/11/16 04:56:43;;;;;;;;;1.00;1.00;;;;;10.28;100.00;99562.28;5052432;28;46047;-78
2022/11/16 04:59:09;;;;;;;;;0.67;0.67;;;;;10.36;100.00;99569.25;5078790;28;46385;-78
2022/11/16 05:04:18;;;;;;;;;1.00;1.00;;;;;10.57;100.00;99573.56;5081949;28;45434;-77
2022/11/16 05:06:44;;;;;;;;;1.33;1.33;;;;;10.55;100.00;99565.00;5081569;28;45514;-78
2022/11/16 05:09:09;;;;;;;;;4.00;0.33;;;;;10.60;100.00;99570.50;5063240;28;47174;-78
2022/11/16 05:11:34;;;;;;;;;1.00;1.00;;;;;10.58;100.00;99577.06;5063450;28;45465;-77
2022/11/16 05:14:01;;;;;;;;;2.00;2.00;;;;;10.60;100.00;99573.16;5081915;28;45314;-78
2022/11/16 05:16:26;;;;;;;;;0.00;0.00;;;;;10.61;100.00;99571.34;5081089;28;45325;-77
2022/11/16 05:21:35;;;;;;;;;1.00;1.00;;;;;10.64;100.00;99578.06;5081581;28;45309;-79
2022/11/16 05:26:45;;;;;;;;;1.00;1.00;;;;;10.47;100.00;99546.59;5066157;28;45340;-77
2022/11/16 05:29:10;;;;;;;;;0.67;0.67;;;;;10.63;100.00;99560.50;5081058;28;45940;-78
2022/11/16 05:31:36;;;;;;;;;1.33;1.33;;;;;10.64;100.00;99557.66;5080948;28;45234;-78
2022/11/16 05:34:01;;;;;;;;;3.67;1.00;;;;;10.76;100.00;99572.97;5063306;28;45378;-78
2022/11/16 05:36:26;;;;;;;;;1.00;1.00;;;;;10.68;100.00;99542.94;5080781;28;45553;-77
2022/11/16 05:38:51;;;;;;;;;1.00;0.00;;;;;10.76;100.00;99551.72;5063085;28;48178;-78
2022/11/16 05:41:17;;;;;;;;;1.00;1.00;;;;;10.81;100.00;99576.66;5081311;28;45402;-78
2022/11/16 05:43:42;;;;;;;;;2.00;2.00;;;;;10.90;100.00;99579.13;5081518;28;45472;-78
2022/11/16 05:46:08;;;;;;;;;1.33;1.33;;;;;10.95;100.00;99568.66;5081041;28;45409;-78
2022/11/16 05:48:33;;;;;;;;;2.00;1.00;;;;;10.95;100.00;99553.53;5080954;28;45273;-77
2022/11/16 05:50:59;;;;;;;;;3.00;2.00;;;;;10.99;100.00;99553.97;5081307;28;45264;-79
2022/11/16 05:53:25;;;;;;;;;0.00;0.00;;;;;11.09;100.00;99558.84;5062823;28;45462;-78
2022/11/16 05:55:50;;;;;;;;;1.67;1.67;;;;;11.09;100.00;99557.03;5059009;28;46210;-78
2022/11/16 05:58:16;;;;;;;;;2.33;2.33;;;;;11.08;100.00;99555.38;5057612;28;46314;-78
2022/11/16 06:00:41;;;;;;;;;1.33;1.33;;;;;11.16;100.00;99566.84;5054147;28;45270;-78
2022/11/16 06:03:06;;;;;;;;;2.00;2.00;;;;;11.11;100.00;99554.16;5081197;28;45435;-78
2022/11/16 06:05:35;;;;;;;;;3.67;2.00;;;;;11.11;100.00;99556.81;5081041;28;45484;-79
2022/11/16 06:08:00;;;;;;;;;1.00;0.33;;;;;11.12;100.00;99555.78;5062262;28;48105;-78
2022/11/16 06:10:25;;;;;;;;;1.33;1.33;;;;;11.06;100.00;99545.97;5062565;28;45304;-78
2022/11/16 06:12:51;;;;;;;;;2.00;0.67;;;;;11.05;100.00;99552.31;5080602;28;45323;-79
2022/11/16 06:15:16;;;;;;;;;1.00;1.00;;;;;11.07;100.00;99558.22;5080399;28;45324;-79
2022/11/16 06:17:42;;;;;;;;;1.33;1.33;;;;;10.95;100.00;99548.22;5080689;28;45434;-78
2022/11/16 06:20:07;;;;;;;;;0.33;0.33;;;;;10.84;100.00;99540.91;5062271;28;50664;-79
2022/11/16 06:22:33;;;;;;;;;1.00;0.67;;;;;10.82;100.00;99532.28;5062455;28;45480;-79
2022/11/16 06:24:58;;;;;;;;;0.00;0.00;;;;;10.89;100.00;99538.41;5080454;28;45514;-79
2022/11/16 06:27:24;;;;;;;;;1.00;1.00;;;;;10.83;100.00;99536.56;5080396;28;45476;-79
2022/11/16 06:29:49;;;;;;;;;1.00;1.00;;;;;10.92;100.00;99540.66;5072014;28;45457;-79
2022/11/16 06:32:14;;;;;;;;;1.33;1.33;;;;;10.86;100.00;99536.16;5060664;28;45381;-78
2022/11/16 06:34:39;;;;;;;;;2.00;1.00;;;;;10.92;100.00;99553.16;5062328;28;45320;-79
2022/11/16 06:37:05;;;;;;;;;2.00;2.00;;;;;10.79;100.00;99536.19;5060250;28;49550;-79
2022/11/16 06:39:30;;;;;;;;;2.00;2.00;;;;;10.51;100.00;99508.00;5054960;28;45301;-79
2022/11/16 06:41:55;;;;;;;;;1.00;1.00;;;;;10.82;100.00;99565.03;5062085;28;45485;-78
2022/11/16 06:44:21;;;;;;;;;3.33;2.00;;;;;10.74;100.00;99549.25;5080106;28;45497;-77
2022/11/16 06:46:46;;;;;;;;;3.33;2.00;;;;;10.85;100.00;99574.41;5080096;28;45373;-79
2022/11/16 06:49:11;;;;;;;;;2.00;2.00;;;;;10.69;100.00;99539.25;5061962;28;45299;-79
2022/11/16 06:51:37;;;;;;;;;4.00;2.00;;;;;10.77;100.00;99561.34;5080341;28;45513;-77
2022/11/16 06:54:02;;;;;;;;;2.67;2.00;;;;;10.82;100.00;99566.84;5079899;28;45369;-78
2022/11/16 06:56:28;;;;;;;;;4.67;3.33;;;;;10.86;100.00;99576.88;5052902;28;47146;-78
2022/11/16 06:58:55;;;;;;;;;1.00;1.00;;;;;10.85;100.00;99577.91;5039287;28;45359;-78
2022/11/16 07:01:21;;;;;;;;;2.33;2.00;;;;;10.80;100.00;99555.59;5036250;28;45458;-78
2022/11/16 07:03:46;;;;;;;;;1.00;1.00;;;;;10.81;100.00;99557.25;5059474;28;45755;-79
2022/11/16 07:06:12;;;;;;;;;1.67;1.67;;;;;10.84;100.00;99549.66;5059366;28;47887;-78
2022/11/16 07:08:38;;;;;;;;;3.00;2.00;;;;;10.84;100.00;99548.88;5060639;28;45804;-79
2022/11/16 07:11:06;;;;;;;;;2.67;1.33;;;;;10.93;100.00;99568.88;5080181;28;46657;-79
2022/11/16 07:13:33;;;;;;;;;4.00;3.00;;;;;10.96;100.00;99565.00;5061608;28;46651;-78
2022/11/16 07:16:07;;;;;;;;;3.00;3.00;;;;;10.79;100.00;99549.47;5061082;28;47239;-79
2022/11/16 07:18:34;;;;;;;;;3.00;1.00;;;;;10.97;100.00;99562.16;5079865;28;45508;-79
2022/11/16 07:21:07;;;;;;;;;2.00;2.00;;;;;10.86;100.00;99546.81;5079896;28;45338;-78
2022/11/16 07:23:34;;;;;;;;;3.00;3.00;;;;;11.01;100.00;99573.19;5061381;28;47427;-79
2022/11/16 07:26:01;;;;;;;;;3.00;2.00;;;;;11.01;100.00;99572.38;5070501;28;45673;-78
2022/11/16 07:28:28;;;;;;;;;2.00;2.00;;;;;11.08;100.00;99573.97;5046005;28;46168;-78
2022/11/16 07:30:54;;;;;;;;;2.33;1.33;;;;;11.07;100.00;99569.69;5079074;28;45236;-78
2022/11/16 07:33:19;;;;;;;;;3.33;3.00;;;;;11.10;100.00;99563.97;5072186;28;45876;-78
2022/11/16 07:35:45;;;;;;;;;1.00;1.00;;;;;11.17;100.00;99565.81;5079345;28;46584;-75
2022/11/16 07:38:10;;;;;;;;;4.33;2.00;;;;;11.30;100.00;99567.59;5057382;28;49941;-78
2022/11/16 07:40:35;;;;;;;;;4.00;1.00;;;;;11.25;100.00;99560.25;5079776;28;45331;-77
2022/11/16 07:43:01;;;;;;;;;2.00;2.00;;;;;11.41;100.00;99582.94;5061089;28;47393;-77
2022/11/16 07:45:26;;;;;;;;;3.00;3.00;;;;;11.44;100.00;99579.84;5079302;28;45299;-78
2022/11/16 07:47:52;;;;;;;;;4.67;3.00;;;;;11.42;100.00;99565.13;5058691;28;45694;-77
2022/11/16 07:50:18;;;;;;;;;2.00;1.67;;;;;11.58;100.00;99579.81;5077466;28;45475;-76
2022/11/16 07:52:45;;;;;;;;;2.33;2.00;;;;;11.34;100.00;99532.41;5049458;28;46974;-77
2022/11/16 07:55:11;;;;;;;;;2.33;2.00;;;;;11.65;100.00;99572.66;5077570;28;46030;-78
2022/11/16 07:57:37;;;;;;;;;2.67;2.67;;;;;11.66;100.00;99568.94;5078121;28;45869;-79
2022/11/16 08:00:04;;;;;;;;;3.00;2.00;;;;;11.77;100.00;99583.47;5073268;28;45483;-81
2022/11/16 08:02:29;;;;;;;;;3.33;2.33;;;;;11.76;100.00;99562.38;5076581;28;45613;-76
2022/11/16 08:04:54;;;;;;;;;5.00;3.00;;;;;11.93;100.00;99579.50;5077848;28;45470;-76
2022/11/16 08:07:20;;;;;;;;;5.00;4.67;;;;;12.02;100.00;99585.41;5060249;28;46391;-79
2022/11/16 08:09:45;;;;;;;;;5.00;3.00;;;;;12.11;100.00;99580.66;5069795;28;45426;-76
2022/11/16 08:12:10;;;;;;;;;5.00;4.00;;;;;12.18;100.00;99575.31;5074229;28;45363;-76
2022/11/16 08:14:36;;;;;;;;;3.33;3.33;;;;;12.23;100.00;99555.00;5073965;27;46201;-76
2022/11/16 08:17:02;;;;;;;;;5.00;5.00;;;;;12.35;100.00;99568.44;5058950;28;45219;-76
2022/11/16 08:19:27;;;;;;;;;6.00;4.00;;;;;12.35;100.00;99556.97;5086597;27;45430;-76
2022/11/16 08:21:53;;;;;;;;;4.00;4.00;;;;;12.50;100.00;99588.63;5054561;28;47078;-77
2022/11/16 08:24:18;;;;;;;;;2.33;2.33;;;;;12.52;100.00;99581.25;5067289;28;45572;-76
2022/11/16 08:26:44;;;;;;;;;4.00;2.33;;;;;12.57;100.00;99586.75;5071739;28;45493;-76
2022/11/16 08:29:10;;;;;;;;;3.67;3.00;;;;;12.63;100.00;99587.72;5076976;28;45311;-76
2022/11/16 08:31:36;;;;;;;;;4.00;4.00;;;;;12.58;100.00;99569.75;5075649;28;45663;-79
2022/11/16 08:34:01;;;;;;;;;3.00;3.00;;;;;12.50;100.00;99578.81;5052037;28;47073;-76
2022/11/16 08:36:27;;;;;;;;;2.67;2.67;;;;;12.59;100.00;99592.69;5076948;28;45346;-75
2022/11/16 08:38:52;;;;;;;;;3.00;2.00;;;;;12.55;100.00;99574.66;5075271;28;45336;-75
2022/11/16 08:41:18;;;;;;;;;3.33;1.67;;;;;12.55;100.00;99569.34;5082694;27;45554;-74
2022/11/16 08:43:46;;;;;;;;;1.00;1.00;;;;;12.60;100.00;99580.97;5076892;28;46209;-75
2022/11/16 08:46:12;;;;;;;;;3.00;2.67;;;;;12.78;100.00;99584.75;5078047;28;45342;-75
2022/11/16 08:48:38;;;;;;;;;2.33;2.33;;;;;12.83;100.00;99581.41;5077911;28;45346;-75
2022/11/16 08:51:06;;;;;;;;;6.33;3.33;;;;;12.84;100.00;99578.53;5059858;28;46118;-77
2022/11/16 08:54:19;;;;;;;;;2.33;2.33;;;;;12.71;100.00;99538.66;5076926;27;45552;-75
2022/11/16 08:56:44;;;;;;;;;5.00;2.00;;;;;12.86;100.00;99554.31;5077956;28;45396;-74
2022/11/16 08:59:11;;;;;;;;;3.33;2.00;;;;;13.07;100.00;99584.28;5079319;28;45541;-78
2022/11/16 09:02:24;;;;;;;;;3.67;3.00;;;;;13.04;100.00;99572.22;5081483;28;45462;-79
2022/11/16 09:04:58;;;;;;;;;2.33;2.00;;;;;12.96;100.00;99553.84;5081410;28;45369;-77
2022/11/16 09:07:37;;;;;;;;;2.33;2.00;;;;;12.85;100.00;99534.88;5062969;28;45855;-76
2022/11/16 09:10:11;;;;;;;;;3.67;2.00;;;;;12.90;100.00;99541.38;5063204;28;45336;-77
2022/11/16 09:12:47;;;;;;;;;2.67;2.67;;;;;12.78;100.00;99519.97;5062893;28;45472;-74
2022/11/16 09:16:04;;;;;;;;;3.00;3.00;;;;;13.17;100.00;99578.47;5052786;28;45437;-78
2022/11/16 09:18:33;;;;;;;;;3.00;2.00;;;;;12.87;100.00;99535.44;4979036;28;45421;-77
2022/11/16 09:21:05;;;;;;;;;3.33;3.33;;;;;12.71;100.00;99509.34;4961941;28;45531;-76
2022/11/16 09:23:30;;;;;;;;;2.00;1.33;;;;;12.73;100.00;99513.44;5008016;28;45972;-78
2022/11/16 09:26:04;;;;;;;;;2.33;1.67;;;;;13.20;100.00;99570.03;5081340;28;46296;-77
2022/11/16 09:32:54;;;;;;;;;3.33;2.00;;;;;13.32;100.00;99570.13;4986779;28;45516;-76
2022/11/16 09:35:45;;;;;;;;;3.00;3.00;;;;;12.93;100.00;99507.09;4999026;28;45250;-78
2022/11/16 09:38:48;;;;;;;;;3.00;3.00;;;;;13.36;100.00;99576.66;4996383;28;48115;-77
2022/11/16 09:42:10;;;;;;;;;;;;;;;;;;;;;
2022/11/16 09:45:03;;;;;;;;;3.00;2.67;;;;;13.18;100.00;99529.41;5064831;28;70455;-76
2022/11/16 09:48:01;;;;;;;;;2.00;2.00;;;;;13.36;100.00;99563.31;5077860;28;45463;-74
2022/11/16 09:50:34;;;;;;;;;4.00;3.00;;;;;13.25;100.00;99543.50;5058630;28;47435;-75
2022/11/16 09:53:15;;;;;;;;;3.33;2.33;;;;;13.31;100.00;99549.78;5079981;28;45673;-76
2022/11/16 10:02:49;;;;;;;;;3.33;3.33;;;;;13.45;100.00;99551.31;5081683;28;45688;-75
2022/11/16 10:12:52;;;;;;;;;3.33;3.00;;;;;13.68;100.00;99551.69;5076351;28;45828;-75
2022/11/16 10:19:33;;;;;;;;;4.33;2.67;;;;;13.87;100.00;99536.44;5061516;28;45263;-75
2022/11/16 10:22:16;;;;;;;;;4.00;3.00;;;;;13.89;100.00;99516.47;5080296;28;45388;-76
2022/11/16 10:24:52;;;;;;;;;3.33;3.33;;;;;13.98;100.00;99525.00;5090867;28;45232;-76
2022/11/16 10:27:54;;;;;;;;;3.67;2.33;;;;;14.04;100.00;99519.78;5090627;27;45598;-76
2022/11/16 10:30:21;;;;;;;;;4.33;4.33;;;;;13.95;100.00;99514.75;5087404;28;45260;-76
2022/11/16 10:32:58;;;;;;;;;4.33;2.67;;;;;14.09;100.00;99528.75;5086555;28;45290;-76
2022/11/16 10:35:33;;;;;;;;;3.33;2.00;;;;;14.08;100.00;99529.81;5088427;28;45386;-76
2022/11/16 10:38:02;;;;;;;;;4.00;2.33;;;;;14.19;100.00;99533.53;5088725;28;46479;-77
2022/11/16 10:40:37;;;;;;;;;3.67;2.00;;;;;14.24;100.00;99525.66;5087019;28;45231;-76
2022/11/16 10:43:03;;;;;;;;;1.67;1.67;;;;;14.30;100.00;99529.28;5089630;28;45327;-76
2022/11/16 10:45:38;;;;;;;;;1.00;1.00;;;;;14.27;100.00;99521.72;5069407;28;46069;-76
2022/11/16 10:48:20;;;;;;;;;2.67;2.33;;;;;14.23;100.00;99517.88;5066264;28;48246;-76
2022/11/16 10:50:48;;;;;;;;;2.00;2.00;;;;;14.22;100.00;99514.38;5068530;28;45346;-76
2022/11/16 10:53:28;;;;;;;;;3.00;1.33;;;;;14.21;100.00;99515.44;5084398;28;45342;-77
2022/11/16 10:56:11;;;;;;;;;4.67;4.67;;;;;14.21;100.00;99507.41;5079229;28;45286;-77
2022/11/16 10:58:58;;;;;;;;;4.67;3.67;;;;;14.26;100.00;99515.56;5085812;28;45263;-75
2022/11/16 11:01:41;;;;;;;;;5.00;3.00;;;;;14.30;100.00;99510.56;5088038;28;45664;-77
2022/11/16 11:04:17;;;;;;;;;4.00;2.67;;;;;14.30;100.00;99497.19;5084951;28;45287;-76
2022/11/16 11:06:44;;;;;;;;;2.00;2.00;;;;;14.31;100.00;99496.16;5062663;28;46257;-77
2022/11/16 11:09:26;;;;;;;;;2.33;2.00;;;;;14.39;100.00;99493.16;5082711;28;45378;-76
2022/11/16 11:15:10;;;;;;;;;1.00;1.00;;;;;14.48;100.00;99485.63;5081547;28;45410;-76
2022/11/16 11:17:38;;;;;;;;;2.00;2.00;;;;;14.46;100.00;99489.56;5080738;28;45497;-77
2022/11/16 11:20:05;;;;;;;;;6.00;4.00;;;;;14.56;100.00;99484.47;5061604;28;47171;-75
2022/11/16 11:22:41;;;;;;;;;3.00;3.00;;;;;14.57;100.00;99479.91;5078449;28;45228;-76
2022/11/16 11:25:24;;;;;;;;;2.67;2.00;;;;;14.57;100.00;99471.88;5080400;28;45233;-75
2022/11/16 11:28:01;;;;;;;;;2.00;1.00;;;;;14.70;100.00;99481.56;5079429;28;45268;-76
2022/11/16 11:30:27;;;;;;;;;1.00;1.00;;;;;14.71;100.00;99465.28;5090537;27;45416;-74
2022/11/16 11:32:52;;;;;;;;;3.00;2.00;;;;;14.76;100.00;99469.94;5092533;27;45687;-76
2022/11/16 11:35:28;;;;;;;;;1.67;1.67;;;;;14.79;100.00;99461.47;5084987;28;45288;-74
2022/11/16 11:37:56;;;;;;;;;1.00;1.00;;;;;14.75;100.00;99458.41;5085343;27;45439;-76
2022/11/16 11:40:27;;;;;;;;;2.67;2.00;;;;;14.73;100.00;99452.47;5064709;28;47518;-75
2022/11/16 11:43:01;;;;;;;;;3.67;2.00;;;;;14.75;100.00;99458.41;5061960;28;45824;-75
2022/11/16 11:45:50;;;;;;;;;4.00;3.67;;;;;14.78;100.00;99457.16;5082851;28;45366;-74
2022/11/16 11:48:58;;;;;;;;;2.67;1.00;;;;;14.81;100.00;99458.56;5076483;28;45391;-75
2022/11/16 11:51:33;;;;;;;;;1.00;1.00;;;;;14.80;100.00;99452.41;5078551;28;46566;-75
2022/11/16 11:54:01;;;;;;;;;2.67;2.67;;;;;15.00;100.00;99467.28;5080421;28;45347;-75
2022/11/16 11:56:29;;;;;;;;;2.00;2.00;;;;;14.98;100.00;99453.31;5082585;28;45271;-75
2022/11/16 11:58:55;;;;;;;;;3.00;2.00;;;;;15.05;100.00;99445.16;5080403;28;45256;-76
2022/11/16 12:01:32;;;;;;;;;6.00;3.00;;;;;15.14;100.00;99452.56;5084030;28;46357;-75
2022/11/16 12:04:06;;;;;;;;;3.67;2.00;;;;;15.20;100.00;99453.50;5082948;28;45378;-75
2022/11/16 12:06:45;;;;;;;;;2.00;2.00;;;;;15.24;100.00;99430.53;5080440;28;45488;-76
2022/11/16 12:09:26;;;;;;;;;5.67;3.00;;;;;15.25;100.00;99429.50;5064872;28;45995;-77
2022/11/16 12:12:20;;;;;;;;;2.00;2.00;;;;;15.30;100.00;99423.47;5080176;28;45381;-76
2022/11/16 12:15:08;;;;;;;;;0.33;0.33;;;;;15.31;100.00;99416.22;5077385;28;45611;-76
2022/11/16 12:17:53;;;;;;;;;3.00;2.00;;;;;15.27;100.00;99419.38;5062423;28;45259;-77
2022/11/16 12:20:36;;;;;;;;;1.00;1.00;;;;;15.25;100.00;99424.16;5081889;28;45332;-76
2022/11/16 12:23:14;;;;;;;;;2.00;2.00;;;;;15.30;100.00;99433.34;5077884;28;46368;-76
2022/11/16 12:25:53;;;;;;;;;2.33;1.67;;;;;15.32;100.00;99423.22;5067900;28;45389;-77
2022/11/16 12:28:30;;;;;;;;;2.00;2.00;;;;;15.38;100.00;99422.25;5057546;28;45349;-77
2022/11/16 12:31:32;;;;;;;;;2.33;0.67;;;;;15.40;100.00;99414.78;5060914;28;45323;-75
2022/11/16 12:34:26;;;;;;;;;1.00;1.00;;;;;15.40;100.00;99401.41;5060075;28;45410;-78
2022/11/16 12:37:16;;;;;;;;;6.00;2.00;;;;;15.46;100.00;99410.34;5062415;28;45315;-75
2022/11/16 12:39:59;;;;;;;;;3.00;3.00;;;;;15.50;100.00;99398.09;5062142;28;45365;-75
2022/11/16 12:42:54;;;;;;;;;3.00;2.00;;;;;15.48;100.00;99395.66;5059400;28;45356;-77
2022/11/16 12:45:52;;;;;;;;;0.33;0.00;;;;;15.43;100.00;99387.53;5061772;28;45323;-76
2022/11/16 12:48:47;;;;;;;;;2.67;2.33;;;;;15.51;100.00;99391.72;5063757;28;45971;-76
2022/11/16 12:51:22;;;;;;;;;5.33;2.33;;;;;15.48;100.00;99376.13;5079631;27;45321;-78
2022/11/16 12:53:55;;;;;;;;;1.00;1.00;;;;;15.53;100.00;99379.69;5082279;27;46219;-76
2022/11/16 12:56:46;;;;;;;;;2.33;2.33;;;;;15.53;100.00;99373.53;5082272;27;48099;-75
2022/11/16 12:59:41;;;;;;;;;3.00;3.00;;;;;15.57;100.00;99366.66;5091389;27;45367;-76
2022/11/16 13:02:28;;;;;;;;;2.00;2.00;;;;;15.58;100.00;99367.44;5063518;28;45261;-77
2022/11/16 13:05:02;;;;;;;;;3.67;3.33;;;;;15.58;100.00;99372.81;5053275;28;46906;-77
2022/11/16 13:07:40;;;;;;;;;3.00;2.00;;;;;15.59;100.00;99364.53;5079991;28;45505;-76
2022/11/16 13:10:16;;;;;;;;;3.50;3.00;;;;;15.57;100.00;99363.97;5072327;28;45769;-78
2022/11/16 13:12:46;;;;;;;;;3.00;2.67;;;;;15.44;100.00;99366.97;5061658;28;45463;-77
2022/11/16 13:15:18;;;;;;;;;2.00;2.00;;;;;15.42;100.00;99361.00;5079003;28;45505;-76
2022/11/16 13:17:55;;;;;;;;;2.00;2.00;;;;;15.37;100.00;99362.56;5080026;28;45312;-77